createdAt,value
2024-03-05T00:00:13.930Z,3.92
2024-03-05T00:03:02.376Z,3.63
2024-03-05T00:05:31.145Z,5.25
2024-03-05T00:07:59.683Z,3.83
2024-03-05T00:10:27.975Z,3.15
2024-03-05T00:12:56.492Z,3.25
2024-03-05T00:15:24.517Z,2.75
2024-03-05T00:17:52.893Z,3.30
2024-03-05T00:20:21.014Z,3.50
2024-03-05T00:22:50.173Z,3.65
2024-03-05T00:25:18.899Z,3.50
2024-03-05T00:27:47.329Z,3.38
2024-03-05T00:30:15.868Z,4.03
2024-03-05T00:32:44.395Z,4.03
2024-03-05T00:35:12.700Z,2.97
2024-03-05T00:37:42.086Z,2.80
2024-03-05T00:40:10.697Z,3.17
2024-03-05T00:42:39.481Z,3.20
2024-03-05T00:45:08.837Z,3.22
2024-03-05T00:47:38.162Z,3.03
2024-03-05T00:50:06.866Z,3.40
2024-03-05T00:52:35.784Z,4.07
2024-03-05T00:55:07.273Z,3.55
2024-03-05T00:57:36.459Z,3.92
2024-03-05T01:00:06.792Z,5.15
2024-03-05T01:02:35.327Z,2.90
2024-03-05T01:05:06.671Z,3.15
2024-03-05T01:07:35.098Z,3.08
2024-03-05T01:10:03.464Z,3.35
2024-03-05T01:12:31.977Z,2.65
2024-03-05T01:15:00.401Z,2.65
2024-03-05T01:17:28.950Z,3.30
2024-03-05T01:19:57.570Z,3.22
2024-03-05T01:22:26.404Z,3.40
2024-03-05T01:24:54.467Z,3.35
2024-03-05T01:27:23.300Z,3.45
2024-03-05T01:29:51.557Z,5.47
2024-03-05T01:32:20.633Z,6.50
2024-03-05T01:34:50.134Z,7.05
2024-03-05T01:37:18.709Z,8.10
2024-03-05T01:39:46.846Z,8.23
2024-03-05T01:42:15.184Z,8.20
2024-03-05T01:44:43.526Z,10.00
2024-03-05T01:47:11.944Z,9.88
2024-03-05T01:49:40.423Z,10.20
2024-03-05T01:52:09.122Z,8.48
2024-03-05T01:54:37.229Z,8.80
2024-03-05T01:57:06.416Z,10.35
2024-03-05T01:59:34.836Z,8.70
2024-03-05T02:02:04.658Z,8.18
2024-03-05T02:04:33.620Z,7.38
2024-03-05T02:07:06.921Z,7.15
2024-03-05T02:09:34.946Z,6.87
2024-03-05T02:12:04.258Z,6.30
2024-03-05T02:14:32.929Z,6.88
2024-03-05T02:17:02.244Z,6.60
2024-03-05T02:19:30.548Z,6.05
2024-03-05T02:22:04.658Z,5.93
2024-03-05T02:24:33.189Z,6.30
2024-03-05T02:27:04.012Z,5.70
2024-03-05T04:17:46.974Z,3.42
2024-03-05T04:20:16.642Z,3.70
2024-03-05T04:22:44.975Z,4.05
2024-03-05T04:25:15.156Z,3.38
2024-03-05T04:27:47.663Z,4.25
2024-03-05T04:30:16.930Z,3.95
2024-03-05T04:32:58.165Z,3.50
2024-03-05T04:35:31.280Z,3.42
2024-03-05T04:37:59.630Z,4.07
2024-03-05T04:40:28.420Z,4.28
2024-03-05T04:42:57.160Z,3.40
2024-03-05T04:45:26.832Z,3.47
2024-03-05T04:47:56.029Z,3.53
2024-03-05T04:50:24.390Z,3.30
2024-03-05T04:52:54.520Z,3.30
2024-03-05T04:55:25.086Z,3.42
2024-03-05T04:57:53.462Z,3.60
2024-03-05T05:00:22.659Z,3.95
2024-03-05T05:02:53.001Z,3.92
2024-03-05T05:05:27.439Z,4.72
2024-03-05T05:07:58.159Z,4.00
2024-03-05T05:10:27.471Z,3.78
2024-03-05T05:12:55.943Z,4.50
2024-03-05T05:15:25.263Z,4.47
2024-03-05T05:17:54.055Z,3.53
2024-03-05T05:20:23.326Z,3.13
2024-03-05T05:22:51.613Z,4.03
2024-03-05T05:25:21.631Z,3.60
2024-03-05T05:27:50.009Z,2.70
2024-03-05T05:30:19.883Z,3.17
2024-03-05T05:32:49.360Z,3.75
2024-03-05T05:35:18.503Z,3.65
2024-03-05T05:37:46.591Z,3.20
2024-03-05T05:40:21.050Z,4.47
2024-03-05T05:45:20.298Z,4.00
2024-03-05T05:47:53.418Z,3.92
2024-03-05T05:50:30.705Z,4.07
2024-03-05T05:52:59.872Z,4.07
2024-03-05T05:55:29.964Z,4.20
2024-03-05T05:57:58.815Z,4.22
2024-03-05T06:00:38.464Z,5.15
2024-03-05T06:03:10.659Z,3.80
2024-03-05T06:05:40.206Z,3.72
2024-03-05T06:08:12.776Z,3.50
2024-03-05T06:10:47.592Z,3.38
2024-03-05T06:13:16.305Z,3.70
2024-03-05T06:15:45.065Z,4.15
2024-03-05T06:18:13.660Z,3.28
2024-03-05T06:20:42.115Z,4.18
2024-03-05T06:23:12.932Z,3.78
2024-03-05T06:25:41.513Z,4.03
2024-03-05T06:28:11.061Z,3.05
2024-03-05T06:30:39.587Z,3.92
2024-03-05T06:33:10.257Z,4.22
2024-03-05T06:35:39.779Z,3.88
2024-03-05T06:38:10.008Z,3.78
2024-03-05T06:40:38.833Z,4.68
2024-03-05T06:43:14.543Z,3.95
2024-03-05T06:45:44.547Z,4.85
2024-03-05T06:48:17.758Z,3.90
2024-03-05T06:50:53.449Z,4.88
2024-03-05T06:53:42.323Z,4.22
2024-03-05T06:56:29.625Z,3.58
2024-03-05T06:58:59.610Z,4.78
2024-03-05T07:01:29.919Z,4.22
2024-03-05T07:03:58.190Z,4.28
2024-03-05T07:06:26.560Z,3.42
2024-03-05T07:08:56.786Z,4.40
2024-03-05T07:11:28.413Z,3.55
2024-03-05T07:13:57.028Z,4.40
2024-03-05T07:16:25.778Z,3.80
2024-03-05T07:18:55.709Z,4.43
2024-03-05T07:21:26.043Z,3.95
2024-03-05T07:23:55.736Z,4.43
2024-03-05T07:26:25.455Z,5.50
2024-03-05T07:28:54.113Z,4.38
2024-03-05T07:31:25.657Z,4.60
2024-03-05T07:33:54.099Z,4.82
2024-03-05T07:36:22.820Z,3.67
2024-03-05T07:38:51.156Z,4.10
2024-03-05T07:41:29.601Z,4.75
2024-03-05T07:44:05.013Z,4.13
2024-03-05T07:46:35.443Z,3.83
2024-03-05T07:49:04.094Z,4.00
2024-03-05T07:51:41.116Z,3.40
2024-03-05T07:54:14.610Z,3.50
2024-03-05T07:56:44.593Z,3.35
2024-03-05T07:59:13.319Z,4.80
2024-03-05T08:01:42.068Z,5.50
2024-03-05T08:04:10.879Z,4.15
2024-03-05T08:06:39.426Z,5.82
2024-03-05T08:09:08.192Z,4.60
2024-03-05T08:11:37.555Z,4.45
2024-03-05T08:14:09.077Z,4.45
2024-03-05T08:16:40.263Z,4.65
2024-03-05T08:19:09.810Z,4.28
2024-03-05T08:21:38.482Z,3.90
2024-03-05T08:24:07.952Z,4.88
2024-03-05T08:26:36.410Z,4.35
2024-03-05T08:29:05.269Z,4.50
2024-03-05T08:31:33.955Z,4.15
2024-03-05T08:34:05.849Z,3.72
2024-03-05T08:36:38.427Z,3.85
2024-03-05T08:39:14.261Z,3.60
2024-03-05T08:41:45.969Z,5.60
2024-03-05T08:44:15.630Z,4.68
2024-03-05T08:46:44.037Z,4.13
2024-03-05T08:49:12.893Z,5.45
2024-03-05T08:51:42.183Z,4.97
2024-03-05T08:54:10.435Z,5.28
2024-03-05T08:56:41.034Z,4.18
2024-03-05T08:59:09.171Z,4.30
2024-03-05T09:01:37.663Z,4.95
2024-03-05T09:04:08.795Z,5.15
2024-03-05T09:06:38.404Z,5.38
2024-03-05T09:09:07.174Z,5.40
2024-03-05T09:11:36.536Z,4.82
2024-03-05T09:14:04.806Z,5.35
2024-03-05T09:16:34.120Z,5.25
2024-03-05T09:19:02.134Z,5.03
2024-03-05T09:21:33.612Z,4.95
2024-03-05T09:24:01.900Z,4.97
2024-03-05T09:26:31.311Z,4.72
2024-03-05T09:28:59.377Z,5.88
2024-03-05T09:31:28.960Z,6.10
2024-03-05T09:33:57.798Z,5.68
2024-03-05T09:36:26.295Z,5.38
2024-03-05T09:38:54.357Z,4.63
2024-03-05T09:41:23.732Z,5.43
2024-03-05T09:43:54.034Z,5.13
2024-03-05T09:46:23.792Z,4.45
2024-03-05T09:48:52.271Z,4.35
2024-03-05T09:51:23.589Z,4.18
2024-03-05T09:53:53.297Z,4.78
2024-03-05T09:56:21.955Z,4.22
2024-03-05T09:58:50.268Z,5.13
2024-03-05T10:01:19.183Z,4.07
2024-03-05T10:03:49.571Z,4.07
2024-03-05T10:06:18.054Z,4.38
2024-03-05T10:08:46.271Z,3.85
2024-03-05T10:11:15.423Z,5.07
2024-03-05T10:13:43.385Z,4.43
2024-03-05T10:16:22.006Z,4.45
2024-03-05T10:18:54.036Z,4.10
2024-03-05T10:21:23.974Z,3.63
2024-03-05T10:24:05.483Z,4.75
2024-03-05T10:26:35.688Z,4.50
2024-03-05T10:29:11.704Z,2.67
2024-03-05T10:31:43.544Z,3.42
2024-03-05T10:34:11.608Z,2.60
2024-03-05T10:36:41.529Z,2.22
2024-03-05T10:39:10.212Z,2.00
2024-03-05T10:41:47.185Z,2.17
2024-03-05T10:44:19.935Z,1.88
2024-03-05T10:46:50.705Z,2.17
2024-03-05T10:49:21.371Z,2.30
2024-03-05T10:51:52.945Z,2.17
2024-03-05T10:54:23.091Z,1.42
2024-03-05T10:56:53.666Z,1.67
2024-03-05T10:59:40.496Z,1.70
2024-03-05T11:02:14.104Z,1.88
2024-03-05T11:04:45.582Z,2.88
2024-03-05T11:07:18.223Z,1.98
2024-03-05T11:09:48.919Z,2.00
2024-03-05T11:12:20.717Z,2.30
2024-03-05T11:14:50.777Z,1.98
2024-03-05T11:17:19.198Z,1.60
2024-03-05T11:19:49.432Z,2.22
2024-03-05T11:22:24.854Z,2.00
2024-03-05T11:24:56.965Z,2.20
2024-03-05T11:27:31.376Z,1.90
2024-03-05T11:30:13.672Z,1.70
2024-03-05T11:32:45.454Z,2.25
2024-03-05T11:35:14.917Z,2.30
2024-03-05T11:37:53.709Z,1.70
2024-03-05T11:40:33.675Z,3.03
2024-03-05T11:43:02.701Z,2.30
2024-03-05T11:45:50.318Z,2.63
2024-03-05T11:48:21.091Z,2.65
2024-03-05T11:50:52.624Z,2.25
2024-03-05T11:53:21.392Z,2.25
2024-03-05T11:55:53.688Z,2.22
2024-03-05T11:58:25.959Z,2.40
2024-03-05T12:01:04.074Z,2.00
2024-03-05T12:03:32.607Z,2.30
2024-03-05T12:06:01.791Z,4.25
2024-03-05T12:08:34.110Z,2.50
2024-03-05T12:11:05.797Z,3.08
2024-03-05T12:13:34.910Z,2.55
2024-03-05T12:16:11.423Z,2.92
2024-03-05T12:18:39.967Z,3.22
2024-03-05T12:21:08.612Z,3.28
2024-03-05T12:23:42.119Z,3.00
2024-03-05T12:26:13.208Z,3.40
2024-03-05T12:28:42.371Z,3.95
2024-03-05T12:31:10.825Z,3.65
2024-03-05T12:33:39.576Z,3.72
2024-03-05T12:36:09.091Z,3.67
2024-03-05T12:38:37.813Z,3.60
2024-03-05T12:41:06.090Z,5.70
2024-03-05T12:43:35.936Z,4.20
2024-03-05T12:46:05.161Z,3.97
2024-03-05T12:48:36.720Z,4.60
2024-03-05T12:51:05.579Z,4.20
2024-03-05T12:53:35.083Z,3.55
2024-03-05T12:56:04.618Z,3.75
2024-03-05T12:58:45.971Z,3.97
2024-03-05T13:01:16.961Z,3.67
2024-03-05T13:03:45.679Z,2.42
2024-03-05T13:06:14.011Z,3.55
2024-03-05T13:08:42.903Z,3.00
2024-03-05T13:11:11.234Z,3.17
2024-03-05T13:13:41.858Z,3.53
2024-03-05T13:16:10.281Z,3.28
2024-03-05T13:18:38.814Z,3.83
2024-03-05T13:21:07.502Z,2.92
2024-03-05T13:23:36.656Z,3.30
2024-03-05T13:26:05.638Z,3.15
2024-03-05T13:28:35.511Z,3.33
2024-03-05T13:31:07.461Z,3.47
2024-03-05T13:33:36.002Z,3.17
2024-03-05T13:36:04.381Z,2.95
2024-03-05T13:38:35.862Z,2.70
2024-03-05T13:41:04.815Z,2.70
2024-03-05T13:43:36.083Z,2.83
2024-03-05T13:46:05.673Z,2.13
2024-03-05T13:48:34.416Z,3.15
2024-03-05T13:51:04.254Z,3.67
2024-03-05T13:53:33.380Z,3.70
2024-03-05T13:56:01.523Z,3.40
2024-03-05T13:58:30.279Z,3.72
2024-03-05T14:01:02.088Z,3.83
2024-03-05T14:03:31.222Z,3.60
2024-03-05T14:06:00.950Z,4.22
2024-03-05T14:08:31.873Z,4.25
2024-03-05T14:11:04.956Z,4.72
2024-03-05T14:13:34.375Z,4.60
2024-03-05T14:16:07.821Z,3.97
2024-03-05T14:18:36.257Z,4.82
2024-03-05T14:21:06.458Z,4.65
2024-03-05T14:23:35.027Z,4.90
2024-03-05T14:26:06.134Z,6.65
2024-03-05T14:28:34.809Z,4.82
2024-03-05T14:31:06.442Z,4.70
2024-03-05T14:33:35.877Z,4.38
2024-03-05T14:36:06.760Z,5.00
2024-03-05T14:38:35.444Z,4.63
2024-03-05T14:41:04.320Z,5.50
2024-03-05T14:43:36.434Z,5.45
2024-03-05T14:46:04.695Z,5.20
2024-03-05T14:48:34.829Z,5.20
2024-03-05T14:51:02.971Z,4.78
2024-03-05T14:53:31.470Z,6.40
2024-03-05T14:55:59.637Z,4.43
2024-03-05T14:58:28.884Z,4.60
2024-03-05T15:00:57.060Z,5.13
2024-03-05T15:03:25.712Z,5.07
2024-03-05T15:05:54.021Z,4.93
2024-03-05T15:08:22.650Z,4.90
2024-03-05T15:10:50.878Z,5.38
2024-03-05T15:13:19.464Z,6.35
2024-03-05T15:15:49.478Z,5.93
2024-03-05T15:18:18.069Z,6.65
2024-03-05T15:20:47.481Z,5.72
2024-03-05T15:23:17.234Z,6.00
2024-03-05T15:25:47.323Z,5.85
2024-03-05T15:28:15.819Z,15.18
2024-03-05T15:30:45.610Z,18.63
2024-03-05T15:33:13.743Z,17.50
2024-03-05T15:35:42.248Z,17.23
2024-03-05T15:38:10.489Z,42.30
2024-03-05T15:40:40.186Z,89.95
2024-03-05T15:43:09.783Z,72.13
2024-03-05T15:45:40.024Z,42.53
2024-03-05T15:48:12.743Z,28.35
2024-03-05T15:50:43.117Z,26.05
2024-03-05T15:53:12.451Z,68.82
2024-03-05T15:55:46.619Z,58.75
2024-03-05T15:58:42.097Z,43.72
2024-03-05T16:01:12.478Z,38.08
2024-03-05T16:03:57.114Z,25.48
2024-03-05T16:06:31.894Z,32.35
2024-03-05T16:09:01.235Z,20.90
2024-03-05T16:11:32.708Z,13.38
2024-03-05T16:14:01.042Z,13.10
2024-03-05T16:16:29.615Z,9.63
2024-03-05T16:18:59.716Z,7.72
2024-03-05T16:21:29.652Z,8.73
2024-03-05T16:23:57.765Z,14.13
2024-03-05T16:26:26.322Z,10.32
2024-03-05T16:28:54.364Z,11.63
2024-03-05T16:31:23.195Z,12.80
2024-03-05T16:33:51.332Z,9.65
2024-03-05T16:36:20.824Z,6.97
2024-03-05T16:38:48.905Z,6.47
2024-03-05T16:41:17.450Z,6.70
2024-03-05T16:43:45.704Z,6.95
2024-03-05T16:46:15.784Z,7.95
2024-03-05T16:48:43.942Z,6.55
2024-03-05T16:51:14.166Z,7.15
2024-03-05T16:53:43.152Z,6.88
2024-03-05T16:56:11.641Z,6.15
2024-03-05T16:58:40.084Z,6.10
2024-03-05T17:01:13.934Z,5.78
2024-03-05T17:03:46.469Z,5.47
2024-03-05T17:06:21.356Z,5.43
2024-03-05T17:08:51.115Z,5.85
2024-03-05T17:11:21.982Z,5.57
2024-03-05T17:13:50.170Z,5.57
2024-03-05T17:16:20.436Z,5.40
2024-03-05T17:18:48.578Z,5.22
2024-03-05T17:21:19.136Z,6.60
2024-03-05T17:23:48.556Z,5.38
2024-03-05T17:26:17.667Z,5.60
2024-03-05T17:28:46.800Z,5.45
2024-03-05T17:31:15.447Z,5.13
2024-03-05T17:33:43.978Z,6.28
2024-03-05T17:36:12.471Z,5.47
2024-03-05T17:38:40.697Z,5.38
2024-03-05T17:41:09.417Z,5.88
2024-03-05T17:43:37.727Z,4.70
2024-03-05T17:46:06.538Z,5.35
2024-03-05T17:48:34.816Z,5.40
2024-03-05T17:51:04.039Z,5.25
2024-03-05T17:53:32.916Z,4.90
2024-03-05T17:56:03.162Z,5.72
2024-03-05T17:58:31.377Z,6.72
2024-03-05T18:00:59.984Z,6.88
2024-03-05T18:03:36.514Z,6.05
2024-03-05T18:06:05.834Z,5.95
2024-03-05T18:08:34.019Z,6.03
2024-03-05T18:11:02.753Z,6.68
2024-03-05T18:13:30.984Z,6.65
2024-03-05T18:15:59.396Z,6.47
2024-03-05T18:18:28.165Z,7.35
2024-03-05T18:20:57.074Z,6.85
2024-03-05T18:23:25.196Z,6.68
2024-03-05T18:25:54.297Z,6.55
2024-03-05T18:28:24.239Z,7.97
2024-03-05T18:30:56.133Z,6.80
2024-03-05T18:33:24.456Z,6.88
2024-03-05T18:35:53.403Z,7.10
2024-03-05T18:38:28.275Z,7.15
2024-03-05T18:41:01.520Z,7.80
2024-03-05T18:43:32.075Z,7.68
2024-03-05T18:46:02.197Z,7.85
2024-03-05T18:48:31.326Z,7.72
2024-03-05T18:51:00.300Z,6.47
2024-03-05T18:53:39.292Z,8.85
2024-03-05T18:56:13.533Z,7.00
2024-03-05T18:58:42.822Z,8.68
2024-03-05T19:01:13.265Z,7.35
2024-03-05T19:03:41.527Z,7.30
2024-03-05T19:06:11.775Z,35.53
2024-03-05T19:08:40.110Z,18.20
2024-03-05T19:11:10.909Z,12.82
2024-03-05T19:13:39.756Z,6.78
2024-03-05T19:16:08.538Z,7.38
2024-03-05T19:18:37.025Z,4.68
2024-03-05T19:21:06.962Z,5.32
2024-03-05T19:23:35.281Z,4.18
2024-03-05T19:26:04.069Z,3.70
2024-03-05T19:28:35.786Z,3.75
2024-03-05T19:33:35.517Z,4.95
2024-03-05T19:36:05.562Z,5.43
2024-03-05T19:38:33.840Z,5.78
2024-03-05T19:41:03.627Z,5.53
2024-03-05T19:43:37.360Z,6.60
2024-03-05T19:46:07.220Z,5.80
2024-03-05T19:48:35.702Z,5.93
2024-03-05T19:51:04.590Z,5.38
2024-03-05T19:53:32.814Z,5.85
2024-03-05T19:56:01.363Z,5.28
2024-03-05T19:58:30.008Z,7.18
2024-03-05T20:01:00.056Z,5.88
2024-03-05T20:03:29.884Z,6.25
2024-03-05T20:05:59.301Z,5.28
2024-03-05T20:08:29.814Z,4.75
2024-03-05T20:10:58.338Z,4.50
2024-03-05T20:13:27.118Z,4.28
2024-03-05T20:15:59.220Z,6.63
2024-03-05T20:18:29.136Z,6.55
2024-03-05T20:20:58.938Z,6.93
2024-03-05T20:23:27.669Z,8.20
2024-03-05T20:25:57.812Z,7.75
2024-03-05T20:28:26.002Z,8.27
2024-03-05T20:30:56.317Z,9.32
2024-03-05T20:33:24.684Z,10.40
2024-03-05T20:35:53.144Z,8.98
2024-03-05T20:38:23.299Z,9.38
2024-03-05T20:40:52.542Z,10.70
2024-03-05T20:43:20.652Z,10.60
2024-03-05T20:45:49.159Z,11.15
2024-03-05T20:48:17.402Z,11.18
2024-03-05T20:50:47.925Z,11.05
2024-03-05T20:53:23.702Z,10.27
2024-03-05T20:55:56.679Z,10.02
2024-03-05T20:58:24.804Z,10.68
2024-03-05T21:00:53.146Z,10.07
2024-03-05T21:03:23.456Z,10.75
2024-03-05T21:05:53.086Z,11.85
2024-03-05T21:08:21.493Z,11.07
2024-03-05T21:10:51.128Z,10.82
2024-03-05T21:13:26.122Z,10.43
2024-03-05T21:15:54.947Z,11.15
2024-03-05T21:18:23.064Z,11.07
2024-03-05T21:20:51.634Z,11.75
2024-03-05T21:23:20.426Z,12.25
2024-03-05T21:26:00.690Z,10.18
2024-03-05T21:28:37.105Z,9.82
2024-03-05T21:31:05.665Z,8.88
2024-03-05T21:33:33.853Z,9.32
2024-03-05T21:36:02.699Z,8.57
2024-03-05T21:38:32.095Z,6.82
2024-03-05T21:41:00.601Z,7.35
2024-03-05T21:43:28.788Z,6.55
2024-03-05T21:45:57.400Z,6.22
2024-03-05T21:48:25.508Z,6.05
2024-03-05T21:51:03.500Z,5.10
2024-03-05T21:53:37.724Z,5.65
2024-03-05T21:56:07.087Z,5.90
2024-03-05T21:58:35.386Z,4.82
2024-03-05T22:01:04.005Z,5.40
2024-03-05T22:03:32.113Z,4.55
2024-03-05T22:06:08.107Z,4.50
2024-03-05T22:08:40.826Z,3.92
2024-03-05T22:11:09.448Z,4.18
2024-03-05T22:13:37.868Z,4.15
2024-03-05T22:16:06.342Z,4.18
2024-03-05T22:18:34.617Z,4.20
2024-03-05T22:21:04.078Z,4.35
2024-03-05T22:23:33.121Z,4.28
2024-03-05T22:26:01.506Z,4.35
2024-03-05T22:28:31.671Z,4.57
2024-03-05T22:31:00.088Z,4.32
2024-03-05T22:33:28.246Z,3.90
2024-03-05T22:35:57.310Z,3.90
2024-03-05T22:38:25.491Z,4.53
2024-03-05T22:40:53.974Z,3.70
2024-03-05T22:43:21.995Z,2.70
2024-03-05T22:45:51.334Z,3.15
2024-03-05T22:48:19.409Z,3.05
2024-03-05T22:50:49.647Z,2.40
2024-03-05T22:53:17.958Z,2.70
2024-03-05T22:55:46.363Z,2.30
2024-03-05T22:58:14.422Z,2.03
2024-03-05T23:00:46.292Z,2.38
2024-03-05T23:03:15.558Z,2.00
2024-03-05T23:05:44.476Z,1.85
2024-03-05T23:08:13.307Z,2.10
2024-03-05T23:10:41.699Z,1.88
2024-03-05T23:13:09.843Z,1.83
2024-03-05T23:15:38.262Z,1.83
2024-03-05T23:18:06.864Z,2.05
2024-03-05T23:20:35.346Z,1.50
2024-03-05T23:23:03.819Z,1.58
2024-03-05T23:25:32.947Z,2.30
2024-03-05T23:28:02.762Z,1.55
2024-03-05T23:30:31.662Z,1.40
2024-03-05T23:32:59.836Z,1.40
2024-03-05T23:35:28.912Z,2.90
2024-03-05T23:37:57.014Z,1.30
2024-03-05T23:40:26.689Z,2.47
2024-03-05T23:42:54.696Z,1.30
2024-03-05T23:45:22.996Z,1.88
2024-03-05T23:47:51.921Z,1.70
2024-03-05T23:50:20.696Z,2.20
2024-03-05T23:52:48.822Z,1.58
2024-03-05T23:55:19.461Z,1.40
2024-03-05T23:57:47.374Z,1.88
